Terminal Aerodrome Forecast
Issued by NWS Green Bay, WI

Home | Current Version | Previous Version | Text Only | Print | Product List | Glossary Off
Versions: 1 2 3 4 5 6 7 8 9 10 11 12 13 14 15 16 17 18 19 20 21 22 23 24 25 26 27 28 29 30 31 32 33 34 35 36 37 38 39 40 41 42 43 44 45 46 47 48 49 50

000
FTUS43 KGRB 232000 AAA
TAFGRB
TAF AMD
KGRB 232003Z 2320/2418 20012KT 3SM BR BKN009 OVC018
      TEMPO 2321/2401 P6SM NSW SCT009 OVC018
     FM240100 18004KT 4SM BR BKN012 OVC030
     FM240500 VRB03KT 4SM BR OVC008
     FM240900 VRB03KT 3SM BR OVC004
     FM241500 01008KT 5SM BR OVC008=

USA.gov is the U.S. government's official web portal to all federal, state and local government web resources and services.